createdAt,value
2022-08-11T00:02:27.865Z,16.92
2022-08-11T00:04:58.065Z,16.83
2022-08-11T00:07:26.933Z,16.75
2022-08-11T00:09:56.573Z,16.71
2022-08-11T00:12:26.539Z,16.66
2022-08-11T00:15:00.104Z,16.61
2022-08-11T00:17:30.218Z,16.56
2022-08-11T00:20:15.222Z,16.53
2022-08-11T00:22:46.652Z,16.49
2022-08-11T00:25:16.624Z,16.46
2022-08-11T00:27:46.996Z,16.48
2022-08-11T00:30:15.802Z,16.46
2022-08-11T00:32:46.440Z,16.47
2022-08-11T00:35:56.343Z,16.44
2022-08-11T00:38:08.095Z,16.41
2022-08-11T00:40:41.903Z,16.42
2022-08-11T00:43:23.059Z,16.43
2022-08-11T00:46:15.646Z,16.43
2022-08-11T00:48:58.254Z,16.44
2022-08-11T00:51:59.752Z,16.45
2022-08-11T00:55:03.471Z,16.44
2022-08-11T00:58:07.350Z,16.44
2022-08-11T01:00:58.235Z,16.42
2022-08-11T01:03:43.862Z,16.41
2022-08-11T01:06:32.695Z,16.40
2022-08-11T01:09:29.079Z,16.35
2022-08-11T01:12:22.050Z,16.30
2022-08-11T01:15:17.742Z,16.27
2022-08-11T01:18:28.356Z,16.23
2022-08-11T01:21:22.237Z,16.23
2022-08-11T01:24:31.153Z,16.19
2022-08-11T01:27:33.999Z,16.16
2022-08-11T01:30:18.844Z,16.12
2022-08-11T01:33:25.974Z,16.04
2022-08-11T01:36:48.307Z,15.97
2022-08-11T01:39:50.071Z,15.91
2022-08-11T01:43:07.223Z,15.89
2022-08-11T01:45:43.010Z,15.85
2022-08-11T01:48:24.048Z,15.81
2022-08-11T01:51:04.370Z,15.78
2022-08-11T01:53:46.475Z,15.72
2022-08-11T01:56:30.774Z,15.66
2022-08-11T01:59:08.678Z,15.64
2022-08-11T02:01:46.551Z,15.62
2022-08-11T02:04:25.766Z,15.59
2022-08-11T02:07:02.774Z,15.57
2022-08-11T02:09:49.628Z,15.55
2022-08-11T02:12:42.698Z,15.55
2022-08-11T02:15:27.706Z,15.53
2022-08-11T02:18:05.062Z,15.52
2022-08-11T02:20:56.022Z,15.53
2022-08-11T02:24:03.868Z,15.52
2022-08-11T02:26:42.174Z,15.53
2022-08-11T02:29:19.969Z,15.51
2022-08-11T02:32:24.374Z,15.50
2022-08-11T02:35:04.681Z,15.47
2022-08-11T02:37:43.891Z,15.41
2022-08-11T02:40:21.665Z,15.36
2022-08-11T02:43:06.363Z,15.32
2022-08-11T02:45:47.290Z,15.29
2022-08-11T02:48:47.101Z,15.27
2022-08-11T02:51:24.610Z,15.24
2022-08-11T02:54:02.158Z,15.21
2022-08-11T02:56:44.618Z,15.19
2022-08-11T02:59:45.900Z,15.14
2022-08-11T03:02:32.745Z,15.08
2022-08-11T03:05:08.650Z,15.07
2022-08-11T03:07:49.321Z,15.04
2022-08-11T03:10:24.515Z,15.02
2022-08-11T03:13:15.522Z,15.02
2022-08-11T03:16:09.949Z,15.03
2022-08-11T03:18:46.296Z,15.03
2022-08-11T03:21:22.052Z,15.04
2022-08-11T03:23:56.845Z,15.06
2022-08-11T03:26:29.652Z,15.06
2022-08-11T03:29:08.060Z,15.10
2022-08-11T03:31:46.097Z,15.11
2022-08-11T03:34:18.489Z,15.10
2022-08-11T03:37:34.213Z,15.07
2022-08-11T03:40:12.279Z,15.06
2022-08-11T03:42:46.919Z,15.06
2022-08-11T03:45:29.540Z,15.05
2022-08-11T03:48:13.904Z,15.03
2022-08-11T03:50:56.043Z,15.03
2022-08-11T03:53:48.930Z,15.01
2022-08-11T03:56:55.340Z,14.97
2022-08-11T03:59:51.832Z,14.92
2022-08-11T04:02:34.876Z,14.85
2022-08-11T04:05:37.275Z,14.78
2022-08-11T04:08:40.639Z,14.73
2022-08-11T04:11:47.010Z,14.67
2022-08-11T04:15:07.693Z,14.64
2022-08-11T04:18:15.453Z,14.67
2022-08-11T04:21:05.982Z,14.69
2022-08-11T04:24:35.624Z,14.66
2022-08-11T04:27:08.323Z,14.70
2022-08-11T04:30:03.025Z,14.74
2022-08-11T04:33:34.177Z,14.81
2022-08-11T04:36:42.962Z,14.87
2022-08-11T04:39:27.080Z,14.91
2022-08-11T04:42:53.535Z,14.97
2022-08-11T04:45:46.021Z,15.02
2022-08-11T04:48:57.374Z,15.07
2022-08-11T04:52:37.971Z,15.18
2022-08-11T04:55:50.676Z,15.32
2022-08-11T04:58:41.914Z,15.43
2022-08-11T05:01:43.454Z,15.54
2022-08-11T05:04:47.954Z,15.69
2022-08-11T05:07:42.220Z,15.83
2022-08-11T05:10:27.133Z,15.98
2022-08-11T05:12:56.953Z,16.13
2022-08-11T05:15:53.891Z,16.26
2022-08-11T05:18:42.779Z,16.41
2022-08-11T05:21:31.188Z,16.54
2022-08-11T05:24:39.874Z,16.72
2022-08-11T05:27:28.731Z,16.85
2022-08-11T05:30:20.062Z,16.99
2022-08-11T05:33:14.752Z,17.12
2022-08-11T05:36:02.294Z,17.30
2022-08-11T05:38:52.517Z,17.46
2022-08-11T05:41:41.908Z,17.63
2022-08-11T05:44:29.381Z,17.78
2022-08-11T05:47:16.862Z,17.91
2022-08-11T05:50:08.906Z,18.09
2022-08-11T05:53:05.222Z,18.25
2022-08-11T05:56:02.268Z,18.38
2022-08-11T05:58:41.761Z,18.51
2022-08-11T06:01:10.590Z,18.67
2022-08-11T06:03:59.002Z,18.76
2022-08-11T06:06:29.610Z,18.84
2022-08-11T06:08:58.817Z,18.94
2022-08-11T06:11:44.137Z,19.09
2022-08-11T06:14:15.650Z,19.27
2022-08-11T06:16:48.213Z,19.37
2022-08-11T06:19:16.741Z,19.49
2022-08-11T06:21:47.847Z,19.59
2022-08-11T06:24:16.970Z,19.68
2022-08-11T06:29:54.391Z,19.62
2022-08-11T06:32:25.968Z,19.72
2022-08-11T06:35:04.638Z,19.78
2022-08-11T06:37:43.524Z,19.81
2022-08-11T06:40:18.980Z,19.94
2022-08-11T06:42:54.648Z,20.05
2022-08-11T06:45:30.589Z,20.00
2022-08-11T06:48:01.126Z,20.16
2022-08-11T06:50:48.553Z,20.23
2022-08-11T06:53:19.803Z,20.29
2022-08-11T06:56:08.748Z,20.42
2022-08-11T06:58:57.745Z,20.41
2022-08-11T07:01:46.269Z,20.70
2022-08-11T07:04:25.048Z,20.79
2022-08-11T07:07:22.788Z,20.97
2022-08-11T07:10:38.531Z,21.07
2022-08-11T07:13:44.434Z,20.96
2022-08-11T07:16:17.220Z,21.14
2022-08-11T07:19:06.680Z,21.25
2022-08-11T07:22:01.280Z,21.22
2022-08-11T07:24:59.338Z,21.30
2022-08-11T07:27:55.492Z,21.48
2022-08-11T07:30:25.317Z,21.56
2022-08-11T07:32:57.465Z,21.73
2022-08-11T07:35:34.164Z,21.82
2022-08-11T07:38:06.876Z,22.00
2022-08-11T07:40:37.127Z,22.15
2022-08-11T07:43:06.948Z,22.23
2022-08-11T07:46:07.478Z,22.37
2022-08-11T07:48:53.665Z,22.73
2022-08-11T07:51:41.282Z,22.71
2022-08-11T07:54:17.110Z,22.82
2022-08-11T07:56:55.328Z,22.81
2022-08-11T08:00:03.514Z,22.77
2022-08-11T08:02:59.866Z,23.08
2022-08-11T08:05:45.302Z,23.39
2022-08-11T08:08:33.462Z,23.34
2022-08-11T08:11:25.504Z,23.41
2022-08-11T08:14:13.335Z,23.61
2022-08-11T08:17:00.370Z,24.02
2022-08-11T08:19:28.648Z,24.04
2022-08-11T08:22:01.099Z,24.26
2022-08-11T08:24:47.877Z,24.51
2022-08-11T08:27:16.493Z,24.48
2022-08-11T08:30:03.912Z,24.74
2022-08-11T08:32:32.620Z,24.72
2022-08-11T08:35:00.935Z,24.80
2022-08-11T08:37:46.989Z,24.86
2022-08-11T08:40:17.448Z,25.05
2022-08-11T08:42:51.978Z,25.26
2022-08-11T08:45:21.111Z,25.55
2022-08-11T08:47:54.543Z,25.70
2022-08-11T08:50:27.688Z,25.84
2022-08-11T08:53:02.250Z,26.02
2022-08-11T08:55:33.648Z,25.89
2022-08-11T08:58:03.091Z,25.93
2022-08-11T09:00:41.778Z,26.13
2022-08-11T09:03:39.893Z,26.49
2022-08-11T09:05:59.595Z,26.85
2022-08-11T09:08:29.422Z,26.83
2022-08-11T09:11:14.263Z,26.55
2022-08-11T09:13:46.089Z,27.03
2022-08-11T09:16:31.772Z,27.33
2022-08-11T09:19:01.851Z,27.53
2022-08-11T09:21:48.781Z,27.54
2022-08-11T09:24:36.715Z,27.11
2022-08-11T09:27:08.730Z,27.45
2022-08-11T09:29:39.063Z,27.63
2022-08-11T09:32:08.408Z,27.84
2022-08-11T09:34:38.284Z,27.95
2022-08-11T09:37:55.761Z,27.91
2022-08-11T09:40:33.363Z,28.29
2022-08-11T09:43:23.167Z,28.64
2022-08-11T09:45:53.534Z,28.76
2022-08-11T09:48:22.871Z,28.87
2022-08-11T09:50:52.407Z,29.11
2022-08-11T09:53:35.058Z,28.79
2022-08-11T09:56:26.778Z,29.12
2022-08-11T09:58:54.944Z,29.33
2022-08-11T10:01:30.130Z,29.42
2022-08-11T10:04:01.563Z,29.64
2022-08-11T10:06:53.958Z,29.91
2022-08-11T10:09:25.014Z,29.83
2022-08-11T10:11:58.833Z,29.77
2022-08-11T10:14:46.473Z,29.86
2022-08-11T10:17:17.416Z,30.14
2022-08-11T10:20:02.742Z,30.02
2022-08-11T10:22:50.749Z,30.04
2022-08-11T10:25:36.350Z,29.77
2022-08-11T10:28:17.767Z,29.63
2022-08-11T10:31:15.553Z,29.82
2022-08-11T10:34:01.592Z,29.84
2022-08-11T10:36:32.130Z,30.10
2022-08-11T10:39:01.408Z,30.21
2022-08-11T10:42:07.373Z,30.44
2022-08-11T10:44:39.225Z,30.24
2022-08-11T10:47:28.002Z,30.45
2022-08-11T10:50:11.367Z,30.66
2022-08-11T10:52:58.474Z,30.82
2022-08-11T10:55:44.638Z,30.88
2022-08-11T10:58:30.612Z,31.05
2022-08-11T11:01:00.495Z,30.69
2022-08-11T11:03:34.476Z,30.98
2022-08-11T11:06:13.271Z,31.32
2022-08-11T11:09:04.482Z,31.53
2022-08-11T11:11:55.143Z,31.59
2022-08-11T11:14:46.071Z,31.15
2022-08-11T11:17:42.735Z,31.46
2022-08-11T11:20:34.730Z,31.36
2022-08-11T11:23:08.969Z,30.76
2022-08-11T11:26:06.255Z,30.96
2022-08-11T11:28:51.395Z,31.04
2022-08-11T11:31:31.675Z,31.11
2022-08-11T11:34:16.046Z,30.86
2022-08-11T11:36:49.942Z,31.19
2022-08-11T11:39:20.338Z,30.83
2022-08-11T11:41:49.404Z,30.70
2022-08-11T11:44:17.883Z,30.52
2022-08-11T11:46:46.800Z,30.48
2022-08-11T11:49:18.569Z,30.26
2022-08-11T11:51:50.210Z,30.09
2022-08-11T11:54:21.091Z,30.22
2022-08-11T11:56:51.214Z,30.51
2022-08-11T11:59:37.368Z,30.63
2022-08-11T12:02:11.983Z,30.45
2022-08-11T12:04:43.022Z,30.52
2022-08-11T12:07:30.891Z,30.22
2022-08-11T12:10:00.003Z,30.20
2022-08-11T12:12:54.354Z,30.09
2022-08-11T12:16:06.491Z,29.93
2022-08-11T12:18:12.358Z,30.09
2022-08-11T12:20:40.386Z,29.94
2022-08-11T12:23:28.183Z,29.73
2022-08-11T12:26:27.012Z,29.49
2022-08-11T12:28:59.768Z,29.54
2022-08-11T12:31:29.302Z,28.95
2022-08-11T12:34:02.447Z,29.14
2022-08-11T12:36:33.613Z,29.37
2022-08-11T12:39:23.167Z,29.34
2022-08-11T12:42:11.399Z,29.40
2022-08-11T12:44:56.991Z,29.44
2022-08-11T12:47:45.792Z,29.28
2022-08-11T12:50:52.370Z,29.29
2022-08-11T12:53:28.053Z,29.41
2022-08-11T12:56:21.275Z,29.39
2022-08-11T12:58:50.620Z,29.17
2022-08-11T13:01:38.922Z,29.15
2022-08-11T13:04:24.343Z,29.21
2022-08-11T13:06:53.205Z,29.27
2022-08-11T13:09:21.853Z,29.32
2022-08-11T13:12:08.687Z,29.30
2022-08-11T13:14:36.615Z,29.35
2022-08-11T13:17:43.473Z,29.33
2022-08-11T13:20:13.450Z,29.23
2022-08-11T13:22:45.619Z,29.35
2022-08-11T13:25:16.226Z,29.39
2022-08-11T13:27:46.487Z,29.34
2022-08-11T13:30:35.594Z,29.31
2022-08-11T13:33:07.507Z,29.41
2022-08-11T13:35:36.986Z,29.50
2022-08-11T13:38:27.565Z,29.44
2022-08-11T13:40:56.505Z,29.40
2022-08-11T13:43:26.013Z,29.34
2022-08-11T13:46:15.423Z,29.33
2022-08-11T13:48:43.530Z,29.40
2022-08-11T13:51:34.781Z,29.36
2022-08-11T13:54:07.538Z,29.36
2022-08-11T13:56:39.662Z,29.31
2022-08-11T13:59:10.194Z,29.51
2022-08-11T14:02:20.841Z,29.48
2022-08-11T14:04:33.807Z,29.17
2022-08-11T14:07:06.139Z,29.30
2022-08-11T14:09:45.986Z,29.28
2022-08-11T14:12:36.825Z,29.32
2022-08-11T14:15:11.841Z,29.35
2022-08-11T14:17:48.942Z,29.40
2022-08-11T14:20:39.450Z,29.48
2022-08-11T14:23:11.380Z,29.51
2022-08-11T14:26:02.931Z,29.42
2022-08-11T14:28:38.857Z,29.50
2022-08-11T14:31:15.172Z,29.32
2022-08-11T14:34:00.722Z,29.45
2022-08-11T14:36:33.339Z,29.52
2022-08-11T14:39:04.165Z,29.69
2022-08-11T14:42:11.229Z,29.85
2022-08-11T14:44:58.571Z,29.92
2022-08-11T14:47:29.087Z,30.03
2022-08-11T14:50:11.145Z,30.14
2022-08-11T14:52:46.450Z,30.14
2022-08-11T14:55:32.408Z,30.15
2022-08-11T14:58:01.812Z,30.29
2022-08-11T15:00:30.982Z,30.32
2022-08-11T15:03:12.973Z,30.25
2022-08-11T15:05:57.322Z,30.39
2022-08-11T15:08:47.255Z,30.35
2022-08-11T15:11:35.734Z,30.20
2022-08-11T15:14:05.357Z,30.13
2022-08-11T15:16:51.815Z,30.29
2022-08-11T15:19:21.967Z,30.66
2022-08-11T15:22:07.947Z,30.54
2022-08-11T15:24:37.184Z,30.68
2022-08-11T15:27:28.183Z,30.67
2022-08-11T15:30:20.959Z,30.84
2022-08-11T15:33:20.188Z,30.93
2022-08-11T15:36:07.818Z,31.03
2022-08-11T15:38:40.879Z,30.93
2022-08-11T15:41:30.614Z,30.83
2022-08-11T15:44:16.469Z,30.92
2022-08-11T15:46:48.345Z,30.76
2022-08-11T15:49:23.784Z,30.81
2022-08-11T15:52:02.286Z,31.14
2022-08-11T15:54:32.901Z,31.23
2022-08-11T15:57:03.830Z,31.50
2022-08-11T15:59:52.339Z,31.56
2022-08-11T16:02:41.183Z,31.77
2022-08-11T16:05:14.119Z,31.76
2022-08-11T16:08:04.800Z,31.32
2022-08-11T16:10:33.862Z,31.07
2022-08-11T16:13:21.071Z,30.48
2022-08-11T16:16:11.051Z,30.14
2022-08-11T16:18:44.184Z,30.08
2022-08-11T16:21:26.260Z,30.09
2022-08-11T16:24:07.639Z,29.96
2022-08-11T16:27:10.130Z,29.85
2022-08-11T16:29:31.679Z,29.61
2022-08-11T16:32:20.668Z,29.53
2022-08-11T16:35:10.648Z,29.36
2022-08-11T16:37:57.767Z,29.20
2022-08-11T16:40:27.163Z,28.95
2022-08-11T16:43:15.100Z,28.88
2022-08-11T16:46:01.222Z,28.69
2022-08-11T16:48:36.244Z,28.41
2022-08-11T16:51:07.059Z,28.38
2022-08-11T16:53:59.607Z,28.26
2022-08-11T16:56:28.278Z,28.12
2022-08-11T16:59:11.011Z,27.90
2022-08-11T17:01:40.324Z,27.88
2022-08-11T17:04:31.304Z,27.84
2022-08-11T17:07:23.616Z,27.73
2022-08-11T17:10:31.774Z,27.64
2022-08-11T17:13:18.844Z,27.56
2022-08-11T17:16:07.966Z,27.60
2022-08-11T17:18:43.161Z,27.52
2022-08-11T17:21:16.010Z,27.39
2022-08-11T17:23:48.206Z,27.22
2022-08-11T17:26:19.018Z,27.13
2022-08-11T17:28:52.836Z,27.21
2022-08-11T17:31:40.424Z,27.06
2022-08-11T17:34:26.292Z,27.07
2022-08-11T17:36:56.250Z,26.99
2022-08-11T17:39:30.080Z,26.82
2022-08-11T17:42:17.521Z,26.81
2022-08-11T17:45:05.416Z,26.70
2022-08-11T17:47:52.591Z,26.51
2022-08-11T17:50:21.979Z,26.43
2022-08-11T17:53:08.442Z,26.34
2022-08-11T17:55:58.132Z,26.31
2022-08-11T17:58:45.926Z,26.18
2022-08-11T18:01:15.884Z,26.09
2022-08-11T18:03:56.424Z,26.00
2022-08-11T18:06:33.786Z,25.91
2022-08-11T18:09:23.830Z,25.85
2022-08-11T18:12:12.734Z,25.75
2022-08-11T18:15:00.835Z,25.60
2022-08-11T18:17:47.538Z,25.41
2022-08-11T18:20:32.570Z,25.27
2022-08-11T18:23:41.664Z,25.10
2022-08-11T18:26:31.080Z,25.00
2022-08-11T18:29:18.179Z,24.86
2022-08-11T18:32:08.633Z,24.66
2022-08-11T18:35:00.433Z,24.54
2022-08-11T18:37:49.952Z,24.44
2022-08-11T18:40:40.607Z,24.33
2022-08-11T18:43:29.651Z,24.19
2022-08-11T18:46:19.779Z,24.06
2022-08-11T18:49:15.297Z,23.83
2022-08-11T18:52:06.826Z,23.70
2022-08-11T18:54:55.114Z,23.59
2022-08-11T18:57:49.906Z,23.47
2022-08-11T19:00:44.465Z,23.32
2022-08-11T19:03:32.995Z,23.18
2022-08-11T19:06:39.935Z,23.03
2022-08-11T19:09:31.790Z,22.91
2022-08-11T19:12:19.189Z,22.82
2022-08-11T19:15:08.442Z,22.76
2022-08-11T19:17:57.666Z,22.69
2022-08-11T19:20:46.277Z,22.62
2022-08-11T19:23:35.035Z,22.48
2022-08-11T19:26:23.149Z,22.35
2022-08-11T19:29:09.620Z,22.28
2022-08-11T19:32:16.890Z,22.20
2022-08-11T19:35:03.671Z,22.11
2022-08-11T19:37:50.708Z,22.00
2022-08-11T19:40:36.321Z,21.96
2022-08-11T19:43:26.454Z,21.85
2022-08-11T19:46:14.810Z,21.75
2022-08-11T19:49:01.519Z,21.66
2022-08-11T19:51:47.600Z,21.56
2022-08-11T19:54:42.438Z,21.49
2022-08-11T19:57:29.099Z,21.40
2022-08-11T20:00:17.406Z,21.33
2022-08-11T20:03:07.343Z,21.24
2022-08-11T20:05:59.418Z,21.15
2022-08-11T20:08:48.806Z,21.10
2022-08-11T20:11:37.202Z,21.02
2022-08-11T20:14:25.630Z,20.92
2022-08-11T20:17:13.896Z,20.84
2022-08-11T20:22:51.901Z,20.67
2022-08-11T20:25:41.197Z,20.59
2022-08-11T20:28:30.311Z,20.47
2022-08-11T20:31:15.763Z,20.41
2022-08-11T20:34:04.317Z,20.33
2022-08-11T20:36:54.911Z,20.21
2022-08-11T20:39:41.765Z,20.14
2022-08-11T20:42:30.768Z,20.05
2022-08-11T20:45:23.305Z,19.94
2022-08-11T20:48:10.818Z,19.88
2022-08-11T20:51:06.262Z,19.82
2022-08-11T20:53:56.663Z,19.72
2022-08-11T20:56:45.718Z,19.65
2022-08-11T20:59:33.259Z,19.56
2022-08-11T21:02:29.707Z,19.50
2022-08-11T21:05:19.471Z,19.43
2022-08-11T21:08:25.548Z,19.37
2022-08-11T21:11:12.903Z,19.30
2022-08-11T21:14:01.880Z,19.24
2022-08-11T21:16:52.758Z,19.16
2022-08-11T21:20:00.166Z,19.10
2022-08-11T21:22:59.339Z,19.03
2022-08-11T21:25:59.252Z,18.98
2022-08-11T21:28:46.811Z,18.90
2022-08-11T21:31:34.142Z,18.84
2022-08-11T21:34:20.899Z,18.78
2022-08-11T21:37:08.909Z,18.73
2022-08-11T21:39:56.227Z,18.70
2022-08-11T21:42:44.359Z,18.69
2022-08-11T21:45:32.409Z,18.61
2022-08-11T21:48:19.874Z,18.54
2022-08-11T21:51:05.099Z,18.48
2022-08-11T21:53:52.396Z,18.43
2022-08-11T21:56:38.521Z,18.35
2022-08-11T21:59:25.709Z,18.26
2022-08-11T22:02:13.250Z,18.21
2022-08-11T22:04:59.015Z,18.15
2022-08-11T22:07:44.586Z,18.13
2022-08-11T22:10:41.862Z,18.11
2022-08-11T22:13:30.269Z,18.11
2022-08-11T22:16:17.973Z,18.11
2022-08-11T22:19:04.878Z,18.09
2022-08-11T22:22:01.550Z,18.08
2022-08-11T22:24:51.387Z,18.06
2022-08-11T22:27:37.027Z,18.00
2022-08-11T22:30:25.601Z,17.85
2022-08-11T22:33:15.042Z,17.77
2022-08-11T22:36:02.566Z,17.70
2022-08-11T22:38:51.086Z,17.63
2022-08-11T22:41:37.233Z,17.53
2022-08-11T22:44:23.358Z,17.51
2022-08-11T22:47:10.134Z,17.47
2022-08-11T22:49:58.690Z,17.42
2022-08-11T22:52:46.110Z,17.34
2022-08-11T22:55:32.791Z,17.31
2022-08-11T22:58:19.344Z,17.29
2022-08-11T23:01:05.341Z,17.28
2022-08-11T23:03:51.747Z,17.26
2022-08-11T23:06:39.584Z,17.22
2022-08-11T23:09:26.323Z,17.19
2022-08-11T23:12:12.439Z,17.11
2022-08-11T23:14:59.492Z,17.10
2022-08-11T23:17:46.302Z,17.08
2022-08-11T23:20:43.316Z,17.03
2022-08-11T23:23:35.687Z,16.96
2022-08-11T23:26:22.412Z,16.94
2022-08-11T23:29:07.625Z,16.90
2022-08-11T23:31:55.062Z,16.88
2022-08-11T23:35:04.910Z,16.83
2022-08-11T23:37:48.531Z,16.81
2022-08-11T23:40:35.925Z,16.69
2022-08-11T23:43:22.007Z,16.65
2022-08-11T23:46:07.863Z,16.63
2022-08-11T23:48:55.809Z,16.60
2022-08-11T23:51:42.501Z,16.57
2022-08-11T23:54:32.609Z,16.52
2022-08-11T23:57:24.186Z,16.51
